createdAt,value
2016-11-21T00:00:31.249Z,-92
2016-11-21T00:01:31.326Z,-92
2016-11-21T00:02:31.341Z,-92
2016-11-21T00:03:31.315Z,-92
2016-11-21T00:04:31.424Z,-92
2016-11-21T00:05:31.423Z,-92
2016-11-21T00:06:31.235Z,-92
2016-11-21T00:07:31.483Z,-91
2016-11-21T00:08:31.482Z,-92
2016-11-21T00:09:31.355Z,-92
2016-11-21T00:10:31.290Z,-91
2016-11-21T00:11:31.358Z,-92
2016-11-21T00:12:31.361Z,-92
2016-11-21T00:13:31.485Z,-91
2016-11-21T00:14:31.428Z,-92
2016-11-21T00:15:31.337Z,-92
2016-11-21T00:16:31.264Z,-92
2016-11-21T00:17:31.363Z,-92
2016-11-21T00:18:31.336Z,-91
2016-11-21T00:19:31.423Z,-91
2016-11-21T00:20:31.341Z,-92
2016-11-21T00:21:31.461Z,-92
2016-11-21T00:22:31.451Z,-91
2016-11-21T00:23:31.258Z,-92
2016-11-21T00:24:31.346Z,-91
2016-11-21T00:25:31.359Z,-91
2016-11-21T00:26:31.511Z,-92
2016-11-21T00:27:31.531Z,-91
2016-11-21T00:28:31.447Z,-91
2016-11-21T00:29:31.440Z,-91
2016-11-21T00:30:31.431Z,-91
2016-11-21T00:31:31.355Z,-91
2016-11-21T00:32:31.307Z,-91
2016-11-21T00:33:31.371Z,-91
2016-11-21T00:34:31.514Z,-92
2016-11-21T00:35:31.432Z,-91
2016-11-21T00:36:31.285Z,-91
2016-11-21T00:37:31.443Z,-91
2016-11-21T00:38:31.448Z,-91
2016-11-21T00:39:31.393Z,-91
2016-11-21T00:40:31.551Z,-92
2016-11-21T00:41:31.429Z,-92
2016-11-21T00:42:31.449Z,-91
2016-11-21T00:43:31.462Z,-91
2016-11-21T00:44:31.345Z,-92
2016-11-21T00:45:31.386Z,-91
2016-11-21T00:46:31.443Z,-90
2016-11-21T00:47:31.368Z,-91
2016-11-21T00:48:31.395Z,-92
2016-11-21T00:49:31.373Z,-91
2016-11-21T00:50:31.367Z,-91
2016-11-21T00:51:31.479Z,-91
2016-11-21T00:52:31.425Z,-91
2016-11-21T00:53:31.358Z,-91
2016-11-21T00:54:31.385Z,-92
2016-11-21T00:55:31.365Z,-92
2016-11-21T00:56:31.397Z,-91
2016-11-21T00:57:31.431Z,-91
2016-11-21T00:58:31.471Z,-91
2016-11-21T00:59:31.323Z,-92
2016-11-21T01:00:31.404Z,-91
2016-11-21T01:01:31.407Z,-91
2016-11-21T01:02:31.386Z,-91
2016-11-21T01:03:31.483Z,-91
2016-11-21T01:04:31.335Z,-91
2016-11-21T01:05:31.381Z,-92
2016-11-21T01:06:31.503Z,-91
2016-11-21T01:07:31.496Z,-92
2016-11-21T01:08:31.361Z,-91
2016-11-21T01:09:31.527Z,-91
2016-11-21T01:10:31.384Z,-91
2016-11-21T01:11:31.395Z,-91
2016-11-21T01:12:31.511Z,-91
2016-11-21T01:13:31.385Z,-91
2016-11-21T01:14:31.506Z,-91
2016-11-21T01:15:31.610Z,-92
2016-11-21T01:16:31.467Z,-91
2016-11-21T01:17:31.802Z,-92
2016-11-21T01:18:31.490Z,-91
2016-11-21T01:19:31.434Z,-91
2016-11-21T01:20:31.583Z,-91
2016-11-21T01:21:31.415Z,-92
2016-11-21T01:22:31.523Z,-91
2016-11-21T01:23:31.410Z,-91
2016-11-21T01:24:31.495Z,-91
2016-11-21T01:25:31.428Z,-91
2016-11-21T01:26:31.496Z,-91
2016-11-21T01:27:31.456Z,-90
2016-11-21T01:28:31.498Z,-89
2016-11-21T01:29:31.429Z,-91
2016-11-21T01:30:31.578Z,-91
2016-11-21T01:31:31.618Z,-91
2016-11-21T01:32:31.584Z,-91
2016-11-21T01:33:31.450Z,-92
2016-11-21T01:34:31.489Z,-91
2016-11-21T01:35:31.537Z,-91
2016-11-21T01:36:31.571Z,-91
2016-11-21T01:37:31.491Z,-91
2016-11-21T01:38:31.432Z,-91
2016-11-21T01:39:31.519Z,-90
2016-11-21T01:40:31.546Z,-91
2016-11-21T01:41:31.533Z,-90
2016-11-21T01:42:31.460Z,-91
2016-11-21T01:43:31.442Z,-91
2016-11-21T01:44:31.518Z,-91
2016-11-21T01:45:31.588Z,-90
2016-11-21T01:46:31.600Z,-90
2016-11-21T01:47:31.477Z,-90
2016-11-21T01:48:31.531Z,-91
2016-11-21T01:49:31.522Z,-91
2016-11-21T01:50:31.533Z,-90
2016-11-21T01:51:31.530Z,-90
2016-11-21T01:52:31.549Z,-90
2016-11-21T01:53:31.553Z,-91
2016-11-21T01:54:31.649Z,-90
2016-11-21T01:55:31.454Z,-90
2016-11-21T01:56:31.475Z,-90
2016-11-21T01:57:31.790Z,-89
2016-11-21T01:58:31.634Z,-90
2016-11-21T01:59:31.531Z,-90
2016-11-21T02:00:31.517Z,-90
2016-11-21T02:01:31.485Z,-89
2016-11-21T02:02:32.568Z,-90
2016-11-21T02:03:31.461Z,-91
2016-11-21T02:04:31.558Z,-91
2016-11-21T02:05:31.639Z,-90
2016-11-21T02:06:31.469Z,-90
2016-11-21T02:07:31.628Z,-90
2016-11-21T02:08:31.650Z,-90
2016-11-21T02:09:31.542Z,-89
2016-11-21T02:10:31.634Z,-90
2016-11-21T02:11:31.568Z,-90
2016-11-21T02:12:31.481Z,-90
2016-11-21T02:13:31.479Z,-89
2016-11-21T02:14:31.645Z,-89
2016-11-21T02:15:31.482Z,-89
2016-11-21T02:16:31.628Z,-89
2016-11-21T02:17:31.589Z,-89
2016-11-21T02:18:31.460Z,-90
2016-11-21T02:19:31.508Z,-90
2016-11-21T02:20:31.590Z,-89
2016-11-21T02:21:31.660Z,-88
2016-11-21T02:22:31.563Z,-89
2016-11-21T02:23:31.557Z,-89
2016-11-21T02:24:31.535Z,-89
2016-11-21T02:25:31.614Z,-89
2016-11-21T02:26:31.543Z,-89
2016-11-21T02:27:31.434Z,-89
2016-11-21T02:28:31.596Z,-89
2016-11-21T02:29:31.541Z,-89
2016-11-21T02:30:31.683Z,-89
2016-11-21T02:31:31.503Z,-89
2016-11-21T02:32:31.502Z,-89
2016-11-21T02:33:31.586Z,-89
2016-11-21T02:34:31.620Z,-89
2016-11-21T02:35:31.465Z,-89
2016-11-21T02:36:31.519Z,-89
2016-11-21T02:37:31.503Z,-90
2016-11-21T02:38:31.586Z,-89
2016-11-21T02:39:31.653Z,-89
2016-11-21T02:40:31.684Z,-88
2016-11-21T02:41:31.602Z,-89
2016-11-21T02:42:31.685Z,-89
2016-11-21T02:43:31.607Z,-90
2016-11-21T02:44:31.515Z,-89
2016-11-21T02:45:31.536Z,-89
2016-11-21T02:46:31.609Z,-88
2016-11-21T02:47:31.536Z,-89
2016-11-21T02:48:31.692Z,-89
2016-11-21T02:49:31.595Z,-90
2016-11-21T02:50:31.595Z,-90
2016-11-21T02:51:31.467Z,-88
2016-11-21T02:52:31.576Z,-89
2016-11-21T02:53:31.727Z,-89
2016-11-21T02:54:31.547Z,-89
2016-11-21T02:55:31.535Z,-89
2016-11-21T02:56:31.539Z,-89
2016-11-21T02:57:31.632Z,-89
2016-11-21T02:58:31.542Z,-89
2016-11-21T02:59:31.549Z,-89
2016-11-21T03:00:31.570Z,-89
2016-11-21T03:01:31.462Z,-90
2016-11-21T03:02:31.487Z,-90
2016-11-21T03:03:31.566Z,-89
2016-11-21T03:04:31.620Z,-89
2016-11-21T03:05:31.484Z,-89
2016-11-21T03:06:31.654Z,-89
2016-11-21T03:07:31.622Z,-90
2016-11-21T03:08:31.712Z,-90
2016-11-21T03:09:31.582Z,-89
2016-11-21T03:10:31.483Z,-89
2016-11-21T03:11:31.488Z,-88
2016-11-21T03:12:31.584Z,-88
2016-11-21T03:13:31.574Z,-89
2016-11-21T03:14:31.583Z,-89
2016-11-21T03:15:31.566Z,-89
2016-11-21T03:16:31.557Z,-89
2016-11-21T03:17:31.659Z,-89
2016-11-21T03:18:31.490Z,-89
2016-11-21T03:19:31.556Z,-89
2016-11-21T03:20:31.640Z,-88
2016-11-21T03:21:31.511Z,-89
2016-11-21T03:22:31.615Z,-89
2016-11-21T03:23:31.661Z,-89
2016-11-21T03:24:31.516Z,-88
2016-11-21T03:25:31.581Z,-90
2016-11-21T03:26:31.612Z,-89
2016-11-21T03:27:31.582Z,-89
2016-11-21T03:28:31.712Z,-89
2016-11-21T03:29:31.589Z,-89
2016-11-21T03:30:31.664Z,-89
2016-11-21T03:31:31.664Z,-89
2016-11-21T03:32:31.726Z,-89
2016-11-21T03:33:31.763Z,-89
2016-11-21T03:34:31.612Z,-89
2016-11-21T03:35:31.548Z,-88
2016-11-21T03:36:31.685Z,-89
2016-11-21T03:37:31.598Z,-88
2016-11-21T03:38:31.548Z,-87
2016-11-21T03:39:31.721Z,-87
2016-11-21T03:40:31.619Z,-88
2016-11-21T03:41:31.632Z,-88
2016-11-21T03:42:31.621Z,-89
2016-11-21T03:43:31.639Z,-89
2016-11-21T03:44:31.607Z,-89
2016-11-21T03:45:31.685Z,-88
2016-11-21T03:46:31.678Z,-89
2016-11-21T03:47:31.518Z,-88
2016-11-21T03:48:31.605Z,-88
2016-11-21T03:49:31.748Z,-88
2016-11-21T03:50:31.627Z,-88
2016-11-21T03:51:31.625Z,-88
2016-11-21T03:52:31.706Z,-88
2016-11-21T03:53:31.534Z,-89
2016-11-21T03:54:31.755Z,-88
2016-11-21T03:55:31.716Z,-88
2016-11-21T03:56:31.704Z,-89
2016-11-21T03:57:31.700Z,-88
2016-11-21T03:58:31.581Z,-88
2016-11-21T03:59:31.692Z,-87
2016-11-21T04:00:31.747Z,-88
2016-11-21T04:01:31.695Z,-88
2016-11-21T04:02:31.652Z,-87
2016-11-21T04:03:31.714Z,-88
2016-11-21T04:04:31.690Z,-88
2016-11-21T04:05:31.815Z,-88
2016-11-21T04:06:31.556Z,-88
2016-11-21T04:07:31.785Z,-88
2016-11-21T04:08:31.717Z,-88
2016-11-21T04:09:31.714Z,-88
2016-11-21T04:10:31.791Z,-88
2016-11-21T04:11:31.553Z,-88
2016-11-21T04:12:31.666Z,-88
2016-11-21T04:13:31.707Z,-88
2016-11-21T04:14:31.648Z,-88
2016-11-21T04:15:31.567Z,-88
2016-11-21T04:16:31.812Z,-88
2016-11-21T04:17:31.745Z,-88
2016-11-21T04:18:31.648Z,-87
2016-11-21T04:19:31.662Z,-88
2016-11-21T04:20:31.796Z,-87
2016-11-21T04:21:31.745Z,-87
2016-11-21T04:22:31.674Z,-88
2016-11-21T04:23:31.740Z,-88
2016-11-21T04:24:31.674Z,-89
2016-11-21T04:25:31.727Z,-88
2016-11-21T04:26:31.680Z,-88
2016-11-21T04:27:31.570Z,-88
2016-11-21T04:28:31.742Z,-87
2016-11-21T04:29:31.788Z,-88
2016-11-21T04:30:31.775Z,-88
2016-11-21T04:31:31.641Z,-87
2016-11-21T04:32:31.870Z,-87
2016-11-21T04:33:31.696Z,-88
2016-11-21T04:34:31.663Z,-88
2016-11-21T04:35:31.761Z,-88
2016-11-21T04:36:31.739Z,-88
2016-11-21T04:37:31.801Z,-88
2016-11-21T04:38:31.694Z,-88
2016-11-21T04:39:31.755Z,-88
2016-11-21T04:40:31.767Z,-88
2016-11-21T04:41:31.782Z,-87
2016-11-21T04:42:31.810Z,-88
2016-11-21T04:43:31.684Z,-87
2016-11-21T04:44:31.693Z,-88
2016-11-21T04:45:31.763Z,-88
2016-11-21T04:46:31.753Z,-87
2016-11-21T04:47:31.811Z,-88
2016-11-21T04:48:31.773Z,-87
2016-11-21T04:49:31.692Z,-87
2016-11-21T04:50:31.695Z,-87
2016-11-21T04:51:31.715Z,-87
2016-11-21T04:52:31.813Z,-87
2016-11-21T04:53:31.705Z,-88
2016-11-21T04:54:31.785Z,-87
2016-11-21T04:55:31.697Z,-87
2016-11-21T04:56:31.724Z,-87
2016-11-21T04:57:31.870Z,-87
2016-11-21T04:58:31.717Z,-87
2016-11-21T04:59:31.804Z,-88
2016-11-21T05:00:31.796Z,-87
2016-11-21T05:01:31.740Z,-87
2016-11-21T05:02:31.634Z,-87
2016-11-21T05:03:31.718Z,-87
2016-11-21T05:04:31.817Z,-87
2016-11-21T05:05:31.731Z,-87
2016-11-21T05:06:31.781Z,-87
2016-11-21T05:07:31.740Z,-87
2016-11-21T05:08:31.867Z,-87
2016-11-21T05:09:31.731Z,-87
2016-11-21T05:10:31.746Z,-87
2016-11-21T05:11:31.639Z,-87
2016-11-21T05:12:31.747Z,-87
2016-11-21T05:13:31.918Z,-87
2016-11-21T05:14:32.174Z,-88
2016-11-21T05:15:31.650Z,-87
2016-11-21T05:16:31.804Z,-87
2016-11-21T05:17:31.642Z,-87
2016-11-21T05:18:31.746Z,-88
2016-11-21T05:19:31.838Z,-87
2016-11-21T05:20:31.777Z,-87
2016-11-21T05:21:31.816Z,-87
2016-11-21T05:22:31.753Z,-87
2016-11-21T05:23:31.756Z,-87
2016-11-21T05:24:31.746Z,-88
2016-11-21T05:25:31.756Z,-87
2016-11-21T05:26:31.828Z,-87
2016-11-21T05:27:31.884Z,-87
2016-11-21T05:28:31.657Z,-88
2016-11-21T05:29:31.813Z,-87
2016-11-21T05:30:31.926Z,-87
2016-11-21T05:31:31.836Z,-87
2016-11-21T05:32:31.775Z,-87
2016-11-21T05:33:31.710Z,-87
2016-11-21T05:34:31.907Z,-87
2016-11-21T05:35:31.812Z,-87
2016-11-21T05:36:31.764Z,-87
2016-11-21T05:37:31.758Z,-87
2016-11-21T05:38:31.775Z,-87
2016-11-21T05:39:31.829Z,-87
2016-11-21T05:40:31.859Z,-87
2016-11-21T05:41:31.852Z,-87
2016-11-21T05:42:31.889Z,-87
2016-11-21T05:43:31.779Z,-87
2016-11-21T05:44:31.760Z,-87
2016-11-21T05:45:31.796Z,-88
2016-11-21T05:46:31.887Z,-87
2016-11-21T05:47:31.693Z,-87
2016-11-21T05:48:31.767Z,-87
2016-11-21T05:49:31.861Z,-87
2016-11-21T05:50:31.708Z,-88
2016-11-21T05:51:31.695Z,-87
2016-11-21T05:52:31.958Z,-86
2016-11-21T05:53:31.775Z,-87
2016-11-21T05:54:31.724Z,-87
2016-11-21T05:55:31.861Z,-87
2016-11-21T05:56:31.873Z,-87
2016-11-21T05:57:31.856Z,-87
2016-11-21T05:58:31.830Z,-87
2016-11-21T05:59:31.782Z,-88
2016-11-21T06:00:31.854Z,-87
2016-11-21T06:01:31.803Z,-87
2016-11-21T06:02:31.839Z,-87
2016-11-21T06:03:31.879Z,-87
2016-11-21T06:04:31.953Z,-87
2016-11-21T06:05:31.886Z,-88
2016-11-21T06:06:31.802Z,-88
2016-11-21T06:07:31.731Z,-87
2016-11-21T06:08:31.830Z,-87
2016-11-21T06:09:31.867Z,-87
2016-11-21T06:10:31.890Z,-87
2016-11-21T06:11:31.810Z,-87
2016-11-21T06:12:31.811Z,-87
2016-11-21T06:13:31.825Z,-87
2016-11-21T06:14:31.809Z,-87
2016-11-21T06:15:31.800Z,-87
2016-11-21T06:16:31.934Z,-87
2016-11-21T06:17:31.898Z,-87
2016-11-21T06:18:32.002Z,-87
2016-11-21T06:19:31.815Z,-87
2016-11-21T06:20:31.956Z,-87
2016-11-21T06:21:31.975Z,-87
2016-11-21T06:22:31.993Z,-87
2016-11-21T06:23:31.857Z,-88
2016-11-21T06:24:31.917Z,-88
2016-11-21T06:25:31.754Z,-87
2016-11-21T06:26:31.815Z,-87
2016-11-21T06:27:31.858Z,-87
2016-11-21T06:28:31.823Z,-87
2016-11-21T06:29:31.955Z,-87
2016-11-21T06:30:31.979Z,-88
2016-11-21T06:31:31.829Z,-87
2016-11-21T06:32:31.906Z,-87
2016-11-21T06:33:31.926Z,-87
2016-11-21T06:34:31.939Z,-87
2016-11-21T06:35:31.866Z,-87
2016-11-21T06:36:31.852Z,-87
2016-11-21T06:37:31.808Z,-87
2016-11-21T06:38:31.848Z,-88
2016-11-21T06:39:31.859Z,-87
2016-11-21T06:40:31.855Z,-87
2016-11-21T06:41:31.956Z,-87
2016-11-21T06:42:31.918Z,-87
2016-11-21T06:43:31.845Z,-87
2016-11-21T06:44:32.009Z,-87
2016-11-21T06:45:31.968Z,-87
2016-11-21T06:46:31.953Z,-87
2016-11-21T06:47:31.866Z,-87
2016-11-21T06:48:31.794Z,-88
2016-11-21T06:49:31.857Z,-87
2016-11-21T06:50:31.898Z,-87
2016-11-21T06:51:31.905Z,-87
2016-11-21T06:52:31.869Z,-87
2016-11-21T06:53:31.864Z,-87
2016-11-21T06:54:31.871Z,-87
2016-11-21T06:55:31.963Z,-87
2016-11-21T06:56:31.872Z,-89
2016-11-21T06:57:31.813Z,-87
2016-11-21T06:58:31.926Z,-87
2016-11-21T06:59:32.046Z,-87
2016-11-21T07:00:31.983Z,-87
2016-11-21T07:01:32.019Z,-87
2016-11-21T07:02:31.960Z,-88
2016-11-21T07:03:31.807Z,-87
2016-11-21T07:04:31.971Z,-87
2016-11-21T07:05:31.881Z,-88
2016-11-21T07:06:32.280Z,-89
2016-11-21T07:07:31.993Z,-94
2016-11-21T07:08:31.968Z,-94
2016-11-21T07:09:31.988Z,-94
2016-11-21T07:10:31.898Z,-95
2016-11-21T07:11:32.017Z,-95
2016-11-21T07:12:32.293Z,-94
2016-11-21T07:13:31.971Z,-94
2016-11-21T07:14:31.987Z,-94
2016-11-21T07:15:31.951Z,-94
2016-11-21T07:16:32.078Z,-95
2016-11-21T07:17:32.328Z,-94
2016-11-21T07:18:32.116Z,-94
2016-11-21T07:19:31.959Z,-94
2016-11-21T07:20:31.947Z,-94
2016-11-21T07:21:31.910Z,-93
2016-11-21T07:22:31.990Z,-94
2016-11-21T07:23:31.908Z,-95
2016-11-21T07:24:31.928Z,-94
2016-11-21T07:25:31.996Z,-94
2016-11-21T07:26:32.018Z,-93
2016-11-21T07:27:31.908Z,-93
2016-11-21T07:28:31.921Z,-94
2016-11-21T07:29:31.959Z,-95
2016-11-21T07:30:31.924Z,-93
2016-11-21T07:31:32.027Z,-93
2016-11-21T07:32:31.929Z,-93
2016-11-21T07:33:31.984Z,-94
2016-11-21T07:34:31.980Z,-93
2016-11-21T07:35:31.842Z,-94
2016-11-21T07:36:31.872Z,-94
2016-11-21T07:37:31.940Z,-94
2016-11-21T07:38:31.865Z,-93
2016-11-21T07:39:32.029Z,-91
2016-11-21T07:40:32.036Z,-93
2016-11-21T07:41:32.018Z,-92
2016-11-21T07:42:32.026Z,-93
2016-11-21T07:43:31.945Z,-93
2016-11-21T07:44:32.221Z,-93
2016-11-21T07:45:31.958Z,-92
2016-11-21T07:46:31.943Z,-93
2016-11-21T07:47:33.372Z,-93
2016-11-21T07:48:33.415Z,-92
2016-11-21T07:49:32.867Z,-93
2016-11-21T07:50:32.533Z,-93
2016-11-21T07:51:32.765Z,-92
2016-11-21T07:52:32.039Z,-93
2016-11-21T07:53:32.048Z,-92
2016-11-21T07:54:32.052Z,-92
2016-11-21T07:55:32.065Z,-92
2016-11-21T07:56:31.979Z,-92
2016-11-21T07:57:31.962Z,-93
2016-11-21T07:58:32.190Z,-93
2016-11-21T07:59:32.043Z,-92
2016-11-21T08:00:32.018Z,-92
2016-11-21T08:01:32.075Z,-92
2016-11-21T08:02:31.939Z,-92
2016-11-21T08:03:31.892Z,-92
2016-11-21T08:04:31.972Z,-93
2016-11-21T08:05:32.195Z,-92
2016-11-21T08:06:31.985Z,-92
2016-11-21T08:07:32.028Z,-92
2016-11-21T08:08:31.933Z,-90
2016-11-21T08:09:31.908Z,-91
2016-11-21T08:10:31.924Z,-93
2016-11-21T08:11:32.046Z,-93
2016-11-21T08:12:32.140Z,-92
2016-11-21T08:13:32.215Z,-91
2016-11-21T08:14:32.053Z,-93
2016-11-21T08:15:32.100Z,-92
2016-11-21T08:16:32.197Z,-92
2016-11-21T08:17:32.010Z,-93
2016-11-21T08:18:32.094Z,-92
2016-11-21T08:19:32.094Z,-93
2016-11-21T08:20:31.939Z,-91
2016-11-21T08:21:32.161Z,-93
2016-11-21T08:22:31.949Z,-94
2016-11-21T08:23:32.110Z,-91
2016-11-21T08:24:32.156Z,-94
2016-11-21T08:25:32.101Z,-94
2016-11-21T08:26:31.969Z,-93
2016-11-21T08:27:32.108Z,-95
2016-11-21T08:28:32.158Z,-94
2016-11-21T08:29:32.121Z,-93
2016-11-21T08:30:32.282Z,-93
2016-11-21T08:31:32.034Z,-94
2016-11-21T08:32:32.043Z,-93
2016-11-21T08:33:32.157Z,-93
2016-11-21T08:34:32.094Z,-93
2016-11-21T08:35:32.063Z,-93
2016-11-21T08:36:32.010Z,-93
2016-11-21T08:37:32.201Z,-94
2016-11-21T08:38:32.224Z,-93
2016-11-21T08:39:31.979Z,-94
2016-11-21T08:40:31.935Z,-93
2016-11-21T08:41:32.096Z,-93
2016-11-21T08:42:32.164Z,-93
2016-11-21T08:43:32.268Z,-94
2016-11-21T08:44:32.000Z,-94
2016-11-21T08:45:32.034Z,-93
2016-11-21T08:46:32.047Z,-94
2016-11-21T08:47:32.232Z,-94
2016-11-21T08:48:32.158Z,-93
2016-11-21T08:49:32.047Z,-94
2016-11-21T08:50:32.007Z,-93
2016-11-21T08:51:32.027Z,-93
2016-11-21T08:52:32.102Z,-94
2016-11-21T08:53:32.111Z,-94
2016-11-21T08:54:32.238Z,-93
2016-11-21T08:55:32.266Z,-94
2016-11-21T08:56:33.167Z,-94
2016-11-21T08:57:32.109Z,-93
2016-11-21T08:58:32.462Z,-93
2016-11-21T08:59:32.129Z,-93
2016-11-21T09:00:32.356Z,-92
2016-11-21T09:01:32.215Z,-92
2016-11-21T09:02:32.131Z,-92
2016-11-21T09:03:32.013Z,-91
2016-11-21T09:04:32.176Z,-92
2016-11-21T09:05:32.012Z,-90
2016-11-21T09:06:32.051Z,-91
2016-11-21T09:07:32.174Z,-91
2016-11-21T09:08:32.221Z,-91
2016-11-21T09:09:32.302Z,-91
2016-11-21T09:10:32.247Z,-92
2016-11-21T09:11:32.158Z,-91
2016-11-21T09:12:32.101Z,-91
2016-11-21T09:13:32.251Z,-91
2016-11-21T09:14:32.170Z,-92
2016-11-21T09:15:32.112Z,-92
2016-11-21T09:16:32.314Z,-92
2016-11-21T09:17:32.151Z,-91
2016-11-21T09:18:32.014Z,-92
2016-11-21T09:19:32.145Z,-93
2016-11-21T09:20:32.019Z,-92
2016-11-21T09:21:33.022Z,-93
2016-11-21T09:22:32.256Z,-92
2016-11-21T09:23:32.111Z,-94
2016-11-21T09:24:32.087Z,-93
2016-11-21T09:25:33.882Z,-92
2016-11-21T09:26:32.089Z,-92
2016-11-21T09:27:32.193Z,-92
2016-11-21T09:28:32.238Z,-92
2016-11-21T09:29:32.281Z,-92
2016-11-21T09:30:32.846Z,-93
2016-11-21T09:31:32.885Z,-91
2016-11-21T09:32:32.459Z,-91
2016-11-21T09:33:32.324Z,-92
2016-11-21T09:34:32.396Z,-92
2016-11-21T09:35:35.355Z,-92
2016-11-21T09:36:32.220Z,-94
2016-11-21T09:37:33.120Z,-93
2016-11-21T09:38:32.887Z,-93
2016-11-21T09:39:32.171Z,-94
2016-11-21T09:40:32.348Z,-93
2016-11-21T09:41:32.428Z,-94
2016-11-21T09:42:32.173Z,-94
2016-11-21T09:43:32.297Z,-94
2016-11-21T09:44:32.236Z,-94
2016-11-21T09:45:32.243Z,-94
2016-11-21T09:46:32.228Z,-94
2016-11-21T09:47:32.264Z,-94
2016-11-21T09:48:32.219Z,-94
2016-11-21T09:49:32.241Z,-93
2016-11-21T09:50:35.061Z,-94
2016-11-21T09:51:32.528Z,-93
2016-11-21T09:52:32.134Z,-94
2016-11-21T09:53:32.224Z,-93
2016-11-21T09:54:32.301Z,-92
2016-11-21T09:55:32.240Z,-93
2016-11-21T09:56:32.166Z,-93
2016-11-21T09:57:33.980Z,-93
2016-11-21T09:58:32.151Z,-92
2016-11-21T09:59:32.136Z,-93
2016-11-21T10:00:32.203Z,-93
2016-11-21T10:01:32.289Z,-94
2016-11-21T10:02:32.276Z,-93
2016-11-21T10:03:32.220Z,-94
2016-11-21T10:04:32.126Z,-93
2016-11-21T10:05:32.209Z,-93
2016-11-21T10:06:32.159Z,-93
2016-11-21T10:07:32.459Z,-93
2016-11-21T10:08:32.254Z,-93
2016-11-21T10:09:32.226Z,-93
2016-11-21T10:10:32.825Z,-94
2016-11-21T10:11:32.291Z,-94
2016-11-21T10:12:32.553Z,-93
2016-11-21T10:13:32.640Z,-92
2016-11-21T10:14:32.326Z,-94
2016-11-21T10:15:32.266Z,-95
2016-11-21T10:16:33.482Z,-94
2016-11-21T10:22:43.778Z,-94
2016-11-21T10:22:52.910Z,-94
2016-11-21T10:23:52.839Z,-93
2016-11-21T10:24:52.962Z,-91
2016-11-21T10:25:52.982Z,-91
2016-11-21T10:26:53.020Z,-91
2016-11-21T10:27:53.072Z,-89
2016-11-21T10:28:52.894Z,-88
2016-11-21T10:29:53.273Z,-89
2016-11-21T10:30:52.808Z,-89
2016-11-21T10:31:52.759Z,-90
2016-11-21T10:32:53.086Z,-89
2016-11-21T10:33:52.971Z,-88
2016-11-21T10:34:52.782Z,-89
2016-11-21T10:35:52.958Z,-89
2016-11-21T10:41:52.914Z,-88
2016-11-21T10:42:52.972Z,-87
2016-11-21T10:43:52.957Z,-87
2016-11-21T10:44:52.965Z,-86
2016-11-21T10:45:52.910Z,-86
2016-11-21T10:46:53.021Z,-86
2016-11-21T10:47:52.966Z,-87
2016-11-21T10:48:53.774Z,-85
2016-11-21T10:49:55.050Z,-86
2016-11-21T10:50:53.036Z,-87
2016-11-21T10:51:53.210Z,-87
2016-11-21T10:52:53.008Z,-87
2016-11-21T10:53:52.951Z,-87
2016-11-21T10:54:53.579Z,-87
2016-11-21T10:55:52.883Z,-86
2016-11-21T10:56:52.922Z,-86
2016-11-21T10:57:52.944Z,-87
2016-11-21T10:58:52.874Z,-88
2016-11-21T10:59:52.927Z,-88
2016-11-21T11:00:53.041Z,-88
2016-11-21T11:01:53.040Z,-88
2016-11-21T11:02:52.917Z,-87
2016-11-21T11:03:52.900Z,-87
2016-11-21T11:04:52.975Z,-88
2016-11-21T11:05:52.931Z,-87
2016-11-21T11:06:53.643Z,-88
2016-11-21T11:07:53.029Z,-88
2016-11-21T11:08:53.129Z,-88
2016-11-21T11:09:54.853Z,-88
2016-11-21T11:10:57.108Z,-88
2016-11-21T11:11:55.238Z,-87
2016-11-21T11:12:53.037Z,-88
2016-11-21T11:13:52.952Z,-89
2016-11-21T11:14:52.959Z,-89
2016-11-21T11:15:53.012Z,-90
2016-11-21T11:16:52.899Z,-89
2016-11-21T11:17:52.995Z,-88
2016-11-21T11:18:53.127Z,-90
2016-11-21T11:19:53.115Z,-89
2016-11-21T11:20:53.396Z,-89
2016-11-21T11:21:52.901Z,-89
2016-11-21T11:22:53.051Z,-89
2016-11-21T11:23:52.896Z,-90
2016-11-21T11:24:52.991Z,-89
2016-11-21T11:25:53.090Z,-89
2016-11-21T11:26:53.350Z,-90
2016-11-21T11:27:53.062Z,-90
2016-11-21T11:28:54.044Z,-89
2016-11-21T11:29:53.080Z,-90
2016-11-21T11:30:52.994Z,-91
2016-11-21T11:31:53.120Z,-90
2016-11-21T11:32:53.234Z,-90
2016-11-21T11:33:53.171Z,-90
2016-11-21T11:34:53.001Z,-89
2016-11-21T11:35:53.055Z,-91
2016-11-21T11:36:53.203Z,-91
2016-11-21T11:37:52.967Z,-91
2016-11-21T11:38:53.026Z,-91
2016-11-21T11:39:53.068Z,-91
2016-11-21T11:40:53.329Z,-90
2016-11-21T11:41:53.499Z,-91
2016-11-21T11:42:53.377Z,-91
2016-11-21T11:43:53.141Z,-92
2016-11-21T11:44:53.652Z,-91
2016-11-21T11:45:54.193Z,-91
2016-11-21T11:46:53.247Z,-92
2016-11-21T11:47:53.340Z,-91
2016-11-21T11:48:53.140Z,-92
2016-11-21T11:49:53.127Z,-92
2016-11-21T11:50:53.983Z,-92
2016-11-21T11:51:53.452Z,-92
2016-11-21T11:52:53.249Z,-91
2016-11-21T11:53:53.100Z,-91
2016-11-21T11:54:53.332Z,-91
2016-11-21T11:55:53.540Z,-92
2016-11-21T11:56:53.290Z,-92
2016-11-21T11:57:53.469Z,-92
2016-11-21T11:58:53.177Z,-93
2016-11-21T11:59:53.024Z,-94
2016-11-21T12:00:53.660Z,-92
2016-11-21T12:01:53.219Z,-93
2016-11-21T12:03:17.948Z,-93
2016-11-21T12:04:01.015Z,-93
2016-11-21T12:05:00.428Z,-93
2016-11-21T12:05:54.741Z,-92
2016-11-21T12:07:20.663Z,-93
2016-11-21T12:07:56.150Z,-92
2016-11-21T12:08:53.302Z,-93
2016-11-21T12:09:53.370Z,-93
2016-11-21T12:10:53.414Z,-92
2016-11-21T12:11:53.363Z,-92
2016-11-21T12:12:53.386Z,-92
2016-11-21T12:13:53.479Z,-92
2016-11-21T12:14:53.471Z,-91
2016-11-21T12:15:53.314Z,-92
2016-11-21T12:16:53.449Z,-92
2016-11-21T12:17:53.202Z,-92
2016-11-21T12:18:53.205Z,-92
2016-11-21T12:19:53.289Z,-91
2016-11-21T12:20:53.320Z,-91
2016-11-21T12:21:53.609Z,-92
2016-11-21T12:22:53.502Z,-93
2016-11-21T12:23:53.584Z,-93
2016-11-21T12:24:53.555Z,-92
2016-11-21T12:25:53.362Z,-93
2016-11-21T12:26:53.468Z,-93
2016-11-21T12:27:53.172Z,-93
2016-11-21T12:28:53.115Z,-93
2016-11-21T12:29:53.384Z,-92
2016-11-21T12:30:53.638Z,-92
2016-11-21T12:31:53.415Z,-92
2016-11-21T12:32:53.536Z,-92
2016-11-21T12:33:53.736Z,-94
2016-11-21T12:34:53.247Z,-95
2016-11-21T12:35:53.200Z,-94
2016-11-21T12:36:53.557Z,-94
2016-11-21T12:37:53.353Z,-94
2016-11-21T12:38:53.304Z,-94
2016-11-21T12:39:53.591Z,-93
2016-11-21T12:40:53.456Z,-95
2016-11-21T12:41:53.390Z,-94
2016-11-21T12:42:53.606Z,-94
2016-11-21T12:43:53.810Z,-94
2016-11-21T12:44:53.325Z,-95
2016-11-21T12:45:53.269Z,-95
2016-11-21T12:46:54.273Z,-93
2016-11-21T12:47:54.340Z,-93
2016-11-21T12:48:53.516Z,-92
2016-11-21T12:49:53.638Z,-93
2016-11-21T12:50:53.604Z,-91
2016-11-21T12:51:53.722Z,-92
2016-11-21T12:52:53.333Z,-93
2016-11-21T12:53:53.473Z,-93
2016-11-21T12:54:53.330Z,-94
2016-11-21T12:55:53.236Z,-94
2016-11-21T12:56:53.665Z,-93
2016-11-21T12:57:53.711Z,-93
2016-11-21T12:58:53.543Z,-93
2016-11-21T12:59:53.620Z,-95
2016-11-21T13:00:53.562Z,-95
2016-11-21T13:01:53.914Z,-95
2016-11-21T13:02:53.404Z,-95
2016-11-21T13:03:53.602Z,-93
2016-11-21T13:04:53.248Z,-93
2016-11-21T13:05:53.467Z,-93
2016-11-21T13:06:53.547Z,-94
2016-11-21T13:07:53.515Z,-92
2016-11-21T13:08:53.435Z,-94
2016-11-21T13:09:53.476Z,-93
2016-11-21T13:11:00.617Z,-95
2016-11-21T13:11:53.538Z,-93
2016-11-21T13:12:53.822Z,-93
2016-11-21T13:13:53.552Z,-92
2016-11-21T13:14:53.438Z,-93
2016-11-21T13:15:53.604Z,-92
2016-11-21T13:16:53.540Z,-92
2016-11-21T13:17:53.658Z,-94
2016-11-21T13:18:53.679Z,-94
2016-11-21T13:19:54.057Z,-94
2016-11-21T13:20:53.432Z,-94
2016-11-21T13:21:53.669Z,-93
2016-11-21T13:22:54.311Z,-92
2016-11-21T13:23:53.812Z,-92
2016-11-21T13:24:53.740Z,-92
2016-11-21T13:25:53.569Z,-94
2016-11-21T13:26:53.545Z,-94
2016-11-21T13:27:53.463Z,-93
2016-11-21T13:28:53.755Z,-93
2016-11-21T13:29:53.836Z,-91
2016-11-21T13:30:53.818Z,-92
2016-11-21T13:31:53.675Z,-92
2016-11-21T13:32:53.465Z,-91
2016-11-21T13:34:08.272Z,-93
2016-11-21T13:34:54.790Z,-94
2016-11-21T13:35:53.591Z,-95
2016-11-21T13:36:53.497Z,-94
2016-11-21T13:37:53.665Z,-95
2016-11-21T13:38:53.745Z,-94
2016-11-21T13:39:53.469Z,-94
2016-11-21T13:40:53.694Z,-93
2016-11-21T13:41:53.634Z,-94
2016-11-21T13:42:53.702Z,-93
2016-11-21T13:43:53.619Z,-94
2016-11-21T13:44:53.691Z,-94
2016-11-21T13:45:53.770Z,-92
2016-11-21T13:46:53.779Z,-92
2016-11-21T13:47:53.677Z,-91
2016-11-21T13:48:53.722Z,-93
2016-11-21T13:49:53.686Z,-93
2016-11-21T13:50:53.854Z,-92
2016-11-21T13:51:53.855Z,-93
2016-11-21T13:52:53.656Z,-93
2016-11-21T13:53:53.765Z,-93
2016-11-21T13:54:53.926Z,-93
2016-11-21T13:55:53.693Z,-93